createdAt,value
2018-11-22T00:00:35.481Z,96.07
2018-11-22T00:01:35.702Z,95.79
2018-11-22T00:02:35.924Z,94.46
2018-11-22T00:03:36.148Z,94.18
2018-11-22T00:04:36.371Z,94.84
2018-11-22T00:05:36.593Z,93.32
2018-11-22T00:06:36.815Z,94.84
2018-11-22T00:07:37.038Z,94.93
2018-11-22T00:08:37.260Z,94.84
2018-11-22T00:09:37.484Z,94.93
2018-11-22T00:10:37.704Z,95.22
2018-11-22T00:11:37.926Z,95.69
2018-11-22T00:12:38.148Z,96.07
2018-11-22T00:13:38.374Z,95.50
2018-11-22T00:14:38.595Z,94.65
2018-11-22T00:15:38.815Z,95.22
2018-11-22T00:16:39.037Z,95.31
2018-11-22T00:17:39.256Z,95.88
2018-11-22T00:18:39.483Z,96.17
2018-11-22T00:19:39.697Z,96.55
2018-11-22T00:20:39.927Z,96.26
2018-11-22T00:21:40.141Z,95.50
2018-11-22T00:22:40.360Z,96.55
2018-11-22T00:23:40.583Z,97.11
2018-11-22T00:24:40.804Z,97.30
2018-11-22T00:25:41.028Z,96.55
2018-11-22T00:26:41.251Z,96.73
2018-11-22T00:27:41.477Z,95.79
2018-11-22T00:28:41.701Z,95.69
2018-11-22T00:29:41.925Z,94.84
2018-11-22T00:30:42.145Z,95.41
2018-11-22T00:31:42.366Z,94.74
2018-11-22T00:32:42.590Z,94.08
2018-11-22T00:33:42.808Z,94.93
2018-11-22T00:34:43.041Z,94.93
2018-11-22T00:35:43.262Z,95.60
2018-11-22T00:36:43.483Z,95.03
2018-11-22T00:37:43.704Z,93.70
2018-11-22T00:38:43.930Z,94.56
2018-11-22T00:39:44.153Z,94.27
2018-11-22T00:40:44.375Z,94.65
2018-11-22T00:41:44.597Z,95.41
2018-11-22T00:42:44.817Z,95.69
2018-11-22T00:43:45.039Z,95.31
2018-11-22T00:44:45.261Z,95.69
2018-11-22T00:45:45.484Z,95.31
2018-11-22T00:46:45.701Z,95.79
2018-11-22T00:47:45.922Z,95.50
2018-11-22T00:48:46.146Z,96.26
2018-11-22T00:49:46.369Z,95.31
2018-11-22T00:50:46.589Z,94.65
2018-11-22T00:51:46.810Z,94.74
2018-11-22T00:52:47.033Z,94.93
2018-11-22T00:53:47.253Z,95.31
2018-11-22T00:54:47.473Z,94.56
2018-11-22T00:55:47.695Z,94.56
2018-11-22T00:56:47.916Z,94.56
2018-11-22T00:57:48.139Z,95.22
2018-11-22T00:58:48.362Z,94.93
2018-11-22T00:59:48.582Z,95.88
2018-11-22T01:00:48.804Z,95.31
2018-11-22T01:01:49.028Z,95.31
2018-11-22T01:02:49.244Z,95.60
2018-11-22T01:03:49.465Z,95.50
2018-11-22T01:04:49.688Z,94.84
2018-11-22T01:05:49.912Z,94.84
2018-11-22T01:06:50.132Z,95.31
2018-11-22T01:07:50.354Z,96.07
2018-11-22T01:08:51.564Z,96.26
2018-11-22T01:09:50.784Z,96.64
2018-11-22T01:10:51.006Z,96.64
2018-11-22T01:11:51.235Z,97.59
2018-11-22T01:12:51.452Z,96.83
2018-11-22T01:13:51.672Z,95.88
2018-11-22T01:14:51.890Z,96.55
2018-11-22T01:15:52.112Z,96.64
2018-11-22T01:16:52.330Z,95.98
2018-11-22T01:17:52.554Z,96.07
2018-11-22T01:18:52.775Z,95.69
2018-11-22T01:19:52.994Z,95.31
2018-11-22T01:20:53.221Z,95.41
2018-11-22T01:21:53.442Z,95.50
2018-11-22T01:22:53.663Z,95.79
2018-11-22T01:23:53.885Z,95.50
2018-11-22T01:24:54.105Z,95.31
2018-11-22T01:25:54.328Z,96.26
2018-11-22T01:26:54.551Z,97.30
2018-11-22T01:27:54.777Z,95.88
2018-11-22T01:28:54.997Z,95.31
2018-11-22T01:29:55.215Z,95.31
2018-11-22T01:30:55.437Z,95.22
2018-11-22T01:31:55.659Z,95.50
2018-11-22T01:32:55.881Z,95.79
2018-11-22T01:33:56.104Z,95.98
2018-11-22T01:34:56.328Z,95.50
2018-11-22T01:35:56.547Z,95.41
2018-11-22T01:36:56.769Z,95.50
2018-11-22T01:37:56.989Z,95.03
2018-11-22T01:38:57.211Z,95.79
2018-11-22T01:39:57.431Z,95.41
2018-11-22T01:40:57.653Z,95.50
2018-11-22T01:41:57.874Z,95.12
2018-11-22T01:42:58.096Z,95.50
2018-11-22T01:43:59.068Z,95.69
2018-11-22T01:44:58.539Z,95.69
2018-11-22T01:45:58.762Z,95.69
2018-11-22T01:46:58.977Z,94.74
2018-11-22T01:47:59.199Z,95.31
2018-11-22T01:48:59.424Z,96.26
2018-11-22T01:49:59.641Z,95.69
2018-11-22T01:50:59.864Z,96.55
2018-11-22T01:52:00.087Z,96.45
2018-11-22T01:53:00.309Z,95.98
2018-11-22T01:54:00.529Z,95.60
2018-11-22T01:55:00.750Z,95.60
2018-11-22T01:56:00.970Z,95.60
2018-11-22T01:57:01.194Z,95.50
2018-11-22T01:58:01.418Z,95.50
2018-11-22T01:59:01.678Z,96.45
2018-11-22T02:00:01.893Z,97.11
2018-11-22T02:01:02.115Z,97.40
2018-11-22T02:02:02.335Z,97.40
2018-11-22T02:03:02.558Z,96.55
2018-11-22T02:04:02.779Z,97.78
2018-11-22T02:05:03.004Z,97.97
2018-11-22T02:06:04.072Z,97.21
2018-11-22T02:07:03.417Z,97.97
2018-11-22T02:08:03.640Z,98.35
2018-11-22T02:09:03.858Z,98.63
2018-11-22T02:10:04.080Z,98.82
2018-11-22T02:11:04.305Z,98.63
2018-11-22T02:12:04.516Z,98.44
2018-11-22T02:13:04.738Z,98.06
2018-11-22T02:14:04.958Z,98.63
2018-11-22T02:15:05.181Z,98.82
2018-11-22T02:16:05.407Z,98.82
2018-11-22T02:17:05.626Z,98.25
2018-11-22T02:18:05.843Z,98.72
2018-11-22T02:19:06.071Z,97.97
2018-11-22T02:20:06.287Z,97.78
2018-11-22T02:21:06.511Z,97.11
2018-11-22T02:22:06.734Z,97.78
2018-11-22T02:23:06.959Z,97.30
2018-11-22T02:24:07.176Z,97.30
2018-11-22T02:25:07.396Z,96.73
2018-11-22T02:26:07.619Z,97.21
2018-11-22T02:27:07.840Z,97.21
2018-11-22T02:28:08.063Z,97.21
2018-11-22T02:29:08.284Z,96.07
2018-11-22T02:30:08.506Z,96.26
2018-11-22T02:31:08.728Z,97.11
2018-11-22T02:32:08.947Z,96.64
2018-11-22T02:33:09.168Z,97.21
2018-11-22T02:34:09.394Z,97.40
2018-11-22T02:35:09.617Z,96.73
2018-11-22T02:36:09.837Z,97.49
2018-11-22T02:37:10.057Z,96.73
2018-11-22T02:38:10.273Z,96.17
2018-11-22T02:39:10.497Z,97.11
2018-11-22T02:40:10.726Z,97.21
2018-11-22T02:41:10.948Z,97.21
2018-11-22T02:42:11.170Z,97.97
2018-11-22T02:43:11.392Z,97.78
2018-11-22T02:44:11.616Z,97.21
2018-11-22T02:45:11.850Z,98.06
2018-11-22T02:46:12.063Z,97.30
2018-11-22T02:47:12.280Z,97.68
2018-11-22T02:48:12.501Z,97.40
2018-11-22T02:49:12.722Z,95.22
2018-11-22T02:50:12.947Z,94.74
2018-11-22T02:51:13.164Z,94.84
2018-11-22T02:52:13.391Z,95.41
2018-11-22T02:53:13.611Z,96.07
2018-11-22T02:54:13.872Z,95.31
2018-11-22T02:55:14.093Z,95.50
2018-11-22T02:56:14.316Z,95.69
2018-11-22T02:57:14.537Z,95.31
2018-11-22T02:58:14.772Z,95.41
2018-11-22T02:59:15.000Z,95.12
2018-11-22T03:00:15.222Z,95.50
2018-11-22T03:01:15.443Z,95.22
2018-11-22T03:02:15.664Z,95.22
2018-11-22T03:03:15.885Z,95.60
2018-11-22T03:04:16.108Z,95.50
2018-11-22T03:05:16.338Z,94.93
2018-11-22T03:06:16.554Z,94.84
2018-11-22T03:07:16.773Z,94.84
2018-11-22T03:08:17.003Z,93.80
2018-11-22T03:09:17.219Z,93.04
2018-11-22T03:10:17.440Z,93.61
2018-11-22T03:11:17.667Z,94.18
2018-11-22T03:12:17.889Z,93.70
2018-11-22T03:13:18.110Z,93.99
2018-11-22T03:14:18.331Z,93.70
2018-11-22T03:15:18.553Z,92.85
2018-11-22T03:16:18.780Z,93.04
2018-11-22T03:17:18.996Z,93.13
2018-11-22T03:18:19.218Z,93.04
2018-11-22T03:19:19.439Z,93.70
2018-11-22T03:20:19.660Z,92.76
2018-11-22T03:21:19.881Z,93.61
2018-11-22T03:22:20.103Z,93.32
2018-11-22T03:23:20.324Z,94.65
2018-11-22T03:24:20.546Z,92.85
2018-11-22T03:25:20.766Z,91.43
2018-11-22T03:26:20.988Z,91.71
2018-11-22T03:27:21.214Z,90.29
2018-11-22T03:28:21.436Z,92.38
2018-11-22T03:29:21.660Z,92.66
2018-11-22T03:30:21.888Z,92.57
2018-11-22T03:31:22.099Z,92.00
2018-11-22T03:32:22.322Z,91.90
2018-11-22T03:33:22.546Z,92.00
2018-11-22T03:34:22.767Z,92.57
2018-11-22T03:35:22.993Z,91.33
2018-11-22T03:36:23.211Z,91.52
2018-11-22T03:37:23.436Z,90.29
2018-11-22T03:38:23.654Z,91.52
2018-11-22T03:39:23.876Z,89.82
2018-11-22T03:40:24.098Z,89.53
2018-11-22T03:41:24.319Z,88.87
2018-11-22T03:42:24.541Z,88.49
2018-11-22T03:43:24.763Z,87.64
2018-11-22T03:44:24.984Z,88.78
2018-11-22T03:45:25.205Z,88.78
2018-11-22T03:46:25.428Z,88.78
2018-11-22T03:47:25.652Z,88.21
2018-11-22T03:48:25.873Z,88.59
2018-11-22T03:49:26.095Z,89.34
2018-11-22T03:50:26.318Z,88.87
2018-11-22T03:51:26.550Z,88.49
2018-11-22T03:52:26.757Z,88.21
2018-11-22T03:53:26.999Z,89.15
2018-11-22T03:54:27.195Z,89.34
2018-11-22T03:55:27.419Z,88.40
2018-11-22T03:56:27.636Z,89.44
2018-11-22T03:57:27.859Z,90.01
2018-11-22T03:58:28.082Z,89.34
2018-11-22T03:59:29.081Z,89.44
2018-11-22T04:00:28.552Z,87.83
2018-11-22T04:01:28.771Z,87.73
2018-11-22T04:02:29.003Z,87.64
2018-11-22T04:03:29.215Z,87.35
2018-11-22T04:04:29.438Z,85.99
2018-11-22T04:05:29.659Z,84.70
2018-11-22T04:06:29.881Z,83.71
2018-11-22T04:07:30.104Z,84.56
2018-11-22T04:08:30.331Z,84.85
2018-11-22T04:09:30.555Z,84.61
2018-11-22T04:10:30.767Z,84.32
2018-11-22T04:11:30.991Z,85.08
2018-11-22T04:12:31.213Z,84.99
2018-11-22T04:13:31.438Z,85.42
2018-11-22T04:14:31.657Z,85.36
2018-11-22T04:15:31.879Z,85.51
2018-11-22T04:16:32.102Z,85.13
2018-11-22T04:17:32.322Z,85.13
2018-11-22T04:18:32.545Z,85.04
2018-11-22T04:19:32.767Z,85.36
2018-11-22T04:20:32.988Z,85.51
2018-11-22T04:21:33.209Z,86.12
2018-11-22T04:22:33.435Z,86.27
2018-11-22T04:23:33.654Z,86.83
2018-11-22T04:24:33.876Z,86.98
2018-11-22T04:25:34.099Z,86.27
2018-11-22T04:26:34.321Z,85.99
2018-11-22T04:27:34.544Z,84.56
2018-11-22T04:28:34.768Z,83.71
2018-11-22T04:29:34.987Z,83.43
2018-11-22T04:30:35.206Z,83.00
2018-11-22T04:31:35.429Z,82.71
2018-11-22T04:32:35.654Z,82.71
2018-11-22T04:33:35.876Z,83.18
2018-11-22T04:34:36.097Z,83.66
2018-11-22T04:35:36.318Z,84.23
2018-11-22T04:36:36.539Z,84.80
2018-11-22T04:37:36.762Z,83.94
2018-11-22T04:38:36.986Z,83.56
2018-11-22T04:39:37.205Z,83.33
2018-11-22T04:40:37.429Z,83.52
2018-11-22T04:41:37.655Z,83.66
2018-11-22T04:42:37.871Z,83.75
2018-11-22T04:43:38.092Z,82.86
2018-11-22T04:44:38.315Z,82.14
2018-11-22T04:45:38.539Z,83.52
2018-11-22T04:46:38.765Z,83.71
2018-11-22T04:47:38.985Z,83.00
2018-11-22T04:48:39.206Z,82.71
2018-11-22T04:49:39.431Z,81.53
2018-11-22T04:50:39.653Z,82.57
2018-11-22T04:51:39.874Z,83.05
2018-11-22T04:52:40.095Z,82.20
2018-11-22T04:53:40.317Z,81.86
2018-11-22T04:54:40.539Z,82.57
2018-11-22T04:55:40.761Z,82.33
2018-11-22T04:56:40.984Z,82.62
2018-11-22T04:57:41.208Z,83.56
2018-11-22T04:58:41.430Z,84.42
2018-11-22T04:59:41.650Z,84.04
2018-11-22T05:00:41.871Z,83.09
2018-11-22T05:01:42.094Z,83.00
2018-11-22T05:02:42.318Z,83.00
2018-11-22T05:03:42.534Z,83.18
2018-11-22T05:04:42.755Z,82.86
2018-11-22T05:05:42.976Z,83.56
2018-11-22T05:06:43.209Z,83.28
2018-11-22T05:07:43.427Z,83.75
2018-11-22T05:08:43.649Z,83.37
2018-11-22T05:09:43.875Z,83.71
2018-11-22T05:10:44.089Z,82.52
2018-11-22T05:11:44.310Z,83.00
2018-11-22T05:12:44.532Z,82.52
2018-11-22T05:13:44.753Z,83.37
2018-11-22T05:14:44.977Z,83.37
2018-11-22T05:15:45.199Z,83.33
2018-11-22T05:16:45.426Z,82.57
2018-11-22T05:17:45.638Z,82.39
2018-11-22T05:18:45.862Z,82.48
2018-11-22T05:19:46.084Z,82.67
2018-11-22T05:20:46.305Z,81.63
2018-11-22T05:21:46.526Z,80.68
2018-11-22T05:22:46.747Z,80.49
2018-11-22T05:23:46.970Z,81.06
2018-11-22T05:24:47.191Z,80.96
2018-11-22T05:25:47.413Z,81.20
2018-11-22T05:26:47.635Z,81.76
2018-11-22T05:27:47.856Z,81.86
2018-11-22T05:28:48.076Z,82.81
2018-11-22T05:29:48.297Z,82.24
2018-11-22T05:30:48.516Z,82.33
2018-11-22T05:31:48.739Z,82.01
2018-11-22T05:32:48.962Z,82.48
2018-11-22T05:33:49.184Z,81.57
2018-11-22T05:34:49.404Z,82.48
2018-11-22T05:35:49.624Z,82.86
2018-11-22T05:36:49.845Z,83.43
2018-11-22T05:37:50.073Z,82.90
2018-11-22T05:38:50.293Z,82.57
2018-11-22T05:39:50.515Z,82.24
2018-11-22T05:40:50.737Z,82.71
2018-11-22T05:41:50.959Z,82.81
2018-11-22T05:42:51.183Z,83.94
2018-11-22T05:43:51.401Z,83.56
2018-11-22T05:44:51.624Z,85.08
2018-11-22T05:45:51.845Z,85.08
2018-11-22T05:46:52.067Z,85.55
2018-11-22T05:47:52.289Z,87.16
2018-11-22T05:48:52.512Z,87.16
2018-11-22T05:49:52.735Z,85.55
2018-11-22T05:50:52.959Z,84.80
2018-11-22T05:51:53.182Z,84.32
2018-11-22T05:52:53.403Z,83.66
2018-11-22T05:53:53.625Z,83.66
2018-11-22T05:54:53.849Z,84.99
2018-11-22T05:55:54.067Z,85.36
2018-11-22T05:56:54.288Z,86.31
2018-11-22T05:57:54.511Z,86.60
2018-11-22T05:58:54.733Z,87.35
2018-11-22T05:59:54.954Z,87.16
2018-11-22T06:00:55.179Z,87.07
2018-11-22T06:01:55.394Z,86.60
2018-11-22T06:02:55.617Z,87.07
2018-11-22T06:03:55.836Z,86.12
2018-11-22T06:04:56.056Z,85.80
2018-11-22T06:05:56.279Z,85.89
2018-11-22T06:06:56.498Z,85.27
2018-11-22T06:07:56.721Z,84.23
2018-11-22T06:08:56.944Z,83.75
2018-11-22T06:09:57.169Z,84.23
2018-11-22T06:10:57.392Z,85.84
2018-11-22T06:11:57.612Z,86.22
2018-11-22T06:12:57.830Z,85.93
2018-11-22T06:13:58.053Z,85.84
2018-11-22T06:14:58.277Z,86.12
2018-11-22T06:15:58.498Z,86.88
2018-11-22T06:16:58.721Z,87.92
2018-11-22T06:17:58.948Z,87.45
2018-11-22T06:18:59.169Z,87.92
2018-11-22T06:19:59.388Z,87.35
2018-11-22T06:20:59.607Z,86.79
2018-11-22T06:21:59.831Z,87.83
2018-11-22T06:23:00.057Z,87.64
2018-11-22T06:24:00.273Z,87.64
2018-11-22T06:25:03.702Z,87.64
2018-11-22T06:26:00.718Z,86.50
2018-11-22T06:27:00.940Z,85.65
2018-11-22T06:28:01.161Z,85.13
2018-11-22T06:29:01.384Z,86.22
2018-11-22T06:30:01.608Z,86.22
2018-11-22T06:31:06.306Z,85.13
2018-11-22T06:32:02.110Z,86.08
2018-11-22T06:33:02.281Z,85.17
2018-11-22T06:34:02.512Z,84.42
2018-11-22T06:35:02.730Z,84.80
2018-11-22T06:36:02.954Z,85.74
2018-11-22T06:37:03.175Z,86.31
2018-11-22T06:38:03.397Z,86.50
2018-11-22T06:39:03.621Z,86.41
2018-11-22T06:40:03.842Z,85.93
2018-11-22T06:41:04.065Z,86.31
2018-11-22T06:42:04.286Z,85.84
2018-11-22T06:43:04.507Z,86.41
2018-11-22T06:44:04.740Z,87.26
2018-11-22T06:45:04.954Z,87.73
2018-11-22T06:46:05.175Z,88.02
2018-11-22T06:47:05.395Z,88.11
2018-11-22T06:48:05.622Z,86.88
2018-11-22T06:49:05.842Z,86.31
2018-11-22T06:50:06.065Z,86.60
2018-11-22T06:51:06.286Z,87.16
2018-11-22T06:52:06.513Z,86.88
2018-11-22T06:53:06.734Z,86.50
2018-11-22T06:54:06.957Z,88.30
2018-11-22T06:55:07.179Z,87.92
2018-11-22T06:56:08.103Z,88.49
2018-11-22T06:57:07.575Z,88.59
2018-11-22T06:58:07.795Z,88.21
2018-11-22T06:59:08.019Z,88.59
2018-11-22T07:00:08.242Z,87.54
2018-11-22T07:01:08.465Z,87.64
2018-11-22T07:02:08.689Z,88.59
2018-11-22T07:03:08.906Z,87.83
2018-11-22T07:04:09.125Z,88.59
2018-11-22T07:05:09.349Z,87.92
2018-11-22T07:06:09.564Z,86.98
2018-11-22T07:07:09.784Z,86.69
2018-11-22T07:08:10.008Z,86.31
2018-11-22T07:09:10.231Z,87.64
2018-11-22T07:10:10.453Z,88.02
2018-11-22T07:11:10.677Z,87.45
2018-11-22T07:12:10.897Z,86.31
2018-11-22T07:13:11.118Z,85.93
2018-11-22T07:14:11.341Z,84.80
2018-11-22T07:15:11.564Z,84.80
2018-11-22T07:16:11.790Z,85.36
2018-11-22T07:17:12.008Z,84.70
2018-11-22T07:18:12.231Z,85.74
2018-11-22T07:19:12.449Z,86.31
2018-11-22T07:20:12.669Z,86.31
2018-11-22T07:21:12.895Z,86.31
2018-11-22T07:22:18.860Z,87.26
2018-11-22T07:23:13.341Z,87.07
2018-11-22T07:24:13.559Z,86.31
2018-11-22T07:25:13.783Z,86.22
2018-11-22T07:26:14.004Z,86.60
2018-11-22T07:27:14.225Z,87.16
2018-11-22T07:28:14.445Z,86.69
2018-11-22T07:29:14.669Z,86.41
2018-11-22T07:30:14.902Z,86.50
2018-11-22T07:31:15.125Z,87.07
2018-11-22T07:32:15.349Z,87.92
2018-11-22T07:33:15.577Z,87.92
2018-11-22T07:34:15.798Z,87.92
2018-11-22T07:35:16.007Z,87.07
2018-11-22T07:36:16.236Z,88.11
2018-11-22T07:37:16.459Z,88.68
2018-11-22T07:38:16.679Z,88.49
2018-11-22T07:39:16.905Z,88.59
2018-11-22T07:40:17.126Z,87.73
2018-11-22T07:41:17.349Z,86.98
2018-11-22T07:42:17.567Z,85.70
2018-11-22T07:43:17.795Z,85.04
2018-11-22T07:44:18.013Z,84.04
2018-11-22T07:45:18.229Z,84.38
2018-11-22T07:46:18.450Z,85.23
2018-11-22T07:47:18.672Z,83.05
2018-11-22T07:48:18.899Z,82.48
2018-11-22T07:49:19.129Z,82.62
2018-11-22T07:50:19.340Z,83.75
2018-11-22T07:51:19.560Z,84.89
2018-11-22T07:52:19.778Z,85.46
2018-11-22T07:53:19.999Z,85.84
2018-11-22T07:54:20.221Z,85.84
2018-11-22T07:55:20.442Z,86.69
2018-11-22T07:56:20.669Z,86.79
2018-11-22T07:57:20.889Z,87.64
2018-11-22T07:58:21.113Z,88.02
2018-11-22T07:59:21.337Z,87.92
2018-11-22T08:00:21.560Z,88.59
2018-11-22T08:01:21.781Z,88.21
2018-11-22T08:02:22.005Z,86.60
2018-11-22T08:03:22.223Z,86.79
2018-11-22T08:04:22.445Z,87.83
2018-11-22T08:05:22.667Z,87.64
2018-11-22T08:06:22.897Z,88.49
2018-11-22T08:07:23.120Z,88.49
2018-11-22T08:08:23.340Z,88.59
2018-11-22T08:09:23.563Z,87.64
2018-11-22T08:10:23.785Z,89.53
2018-11-22T08:11:24.007Z,89.34
2018-11-22T08:12:26.044Z,89.15
2018-11-22T08:13:24.446Z,89.91
2018-11-22T08:14:24.669Z,90.10
2018-11-22T08:15:24.893Z,89.91
2018-11-22T08:16:25.117Z,90.20
2018-11-22T08:17:25.335Z,90.48
2018-11-22T08:18:25.558Z,90.29
2018-11-22T08:19:25.781Z,89.63
2018-11-22T08:20:26.002Z,88.96
2018-11-22T08:21:26.268Z,89.91
2018-11-22T08:22:26.440Z,90.86
2018-11-22T08:23:26.668Z,90.10
2018-11-22T08:24:26.886Z,92.66
2018-11-22T08:25:27.118Z,92.28
2018-11-22T08:26:27.333Z,91.71
2018-11-22T08:27:27.554Z,90.48
2018-11-22T08:28:27.777Z,89.63
2018-11-22T08:29:28.001Z,89.34
2018-11-22T08:30:28.223Z,88.87
2018-11-22T08:31:28.450Z,89.25
2018-11-22T08:32:28.668Z,89.72
2018-11-22T08:33:28.932Z,89.91
2018-11-22T08:34:29.171Z,90.10
2018-11-22T08:35:29.397Z,89.44
2018-11-22T08:36:29.617Z,89.63
2018-11-22T08:37:29.844Z,90.77
2018-11-22T08:38:30.066Z,90.77
2018-11-22T08:39:30.285Z,91.33
2018-11-22T08:40:30.505Z,92.00
2018-11-22T08:41:30.732Z,92.19
2018-11-22T08:42:30.949Z,91.33
2018-11-22T08:43:31.171Z,89.34
2018-11-22T08:44:31.397Z,89.44
2018-11-22T08:45:31.618Z,90.58
2018-11-22T08:46:31.853Z,90.39
2018-11-22T08:47:32.060Z,89.72
2018-11-22T08:48:32.286Z,89.91
2018-11-22T08:49:32.502Z,90.48
2018-11-22T08:50:32.730Z,89.25
2018-11-22T08:51:33.002Z,88.96
2018-11-22T08:52:33.161Z,90.86
2018-11-22T08:53:37.212Z,90.67
2018-11-22T08:54:33.603Z,90.10
2018-11-22T08:55:33.824Z,91.24
2018-11-22T08:56:34.046Z,91.24
2018-11-22T08:57:34.257Z,91.52
2018-11-22T08:58:34.492Z,90.86
2018-11-22T08:59:34.716Z,91.24
2018-11-22T09:00:34.938Z,90.67
2018-11-22T09:01:35.161Z,91.52
2018-11-22T09:02:35.380Z,90.29
2018-11-22T09:03:35.668Z,89.53
2018-11-22T09:04:35.816Z,90.20
2018-11-22T09:05:36.037Z,91.33
2018-11-22T09:06:36.257Z,91.52
2018-11-22T09:07:36.473Z,90.48
2018-11-22T09:08:36.699Z,90.67
2018-11-22T09:09:36.923Z,91.62
2018-11-22T09:10:37.144Z,91.90
2018-11-22T09:11:38.108Z,92.09
2018-11-22T09:12:37.582Z,92.76
2018-11-22T09:13:37.803Z,92.47
2018-11-22T09:14:38.019Z,92.09
2018-11-22T09:15:38.240Z,92.66
2018-11-22T09:16:38.463Z,92.52
2018-11-22T09:17:38.683Z,91.95
2018-11-22T09:18:38.908Z,92.76
2018-11-22T09:19:39.131Z,94.60
2018-11-22T09:20:39.348Z,95.26
2018-11-22T09:21:39.567Z,93.75
2018-11-22T09:22:39.788Z,92.57
2018-11-22T09:23:40.042Z,93.94
2018-11-22T09:24:40.232Z,93.46
2018-11-22T09:25:40.458Z,93.84
2018-11-22T09:26:40.681Z,95.45
2018-11-22T09:27:40.906Z,94.89
2018-11-22T09:28:41.129Z,95.07
2018-11-22T09:29:41.345Z,94.89
2018-11-22T09:30:41.569Z,94.79
2018-11-22T09:31:41.791Z,94.23
2018-11-22T09:32:42.014Z,94.27
2018-11-22T09:33:42.237Z,93.65
2018-11-22T09:34:42.463Z,92.94
2018-11-22T09:35:42.680Z,92.42
2018-11-22T09:36:42.904Z,93.37
2018-11-22T09:37:43.129Z,94.42
2018-11-22T09:38:43.343Z,95.36
2018-11-22T09:39:43.570Z,95.07
2018-11-22T09:40:43.791Z,93.56
2018-11-22T09:41:44.006Z,94.04
2018-11-22T09:42:44.237Z,94.51
2018-11-22T09:43:44.469Z,95.65
2018-11-22T09:44:44.690Z,95.65
2018-11-22T09:45:44.936Z,95.17
2018-11-22T09:46:45.161Z,95.17
2018-11-22T09:47:45.349Z,93.84
2018-11-22T09:48:45.637Z,93.84
2018-11-22T09:49:45.804Z,94.89
2018-11-22T09:50:46.022Z,95.55
2018-11-22T09:51:46.242Z,96.03
2018-11-22T09:52:46.463Z,96.12
2018-11-22T09:53:46.687Z,95.17
2018-11-22T09:54:46.910Z,95.65
2018-11-22T09:55:47.134Z,96.12
2018-11-22T09:56:47.356Z,96.69
2018-11-22T09:57:47.580Z,96.41
2018-11-22T09:58:47.807Z,96.41
2018-11-22T09:59:48.028Z,95.84
2018-11-22T10:00:48.253Z,95.17
2018-11-22T10:01:48.472Z,94.70
2018-11-22T10:02:48.705Z,95.84
2018-11-22T10:03:48.930Z,97.16
2018-11-22T10:04:49.183Z,97.35
2018-11-22T10:05:49.454Z,97.26
2018-11-22T10:06:49.595Z,96.12
2018-11-22T10:07:50.615Z,97.16
2018-11-22T10:08:50.088Z,98.02
2018-11-22T10:09:50.310Z,98.58
2018-11-22T10:10:50.536Z,98.21
2018-11-22T10:11:50.758Z,98.49
2018-11-22T10:12:50.981Z,98.30
2018-11-22T10:13:51.208Z,98.21
2018-11-22T10:14:51.429Z,98.49
2018-11-22T10:15:51.652Z,98.96
2018-11-22T10:16:51.922Z,99.72
2018-11-22T10:17:52.100Z,99.53
2018-11-22T10:18:52.322Z,99.99
2018-11-22T10:19:52.546Z,98.68
2018-11-22T10:20:52.772Z,98.77
2018-11-22T10:21:52.992Z,98.96
2018-11-22T10:22:53.217Z,99.34
2018-11-22T10:23:53.488Z,98.68
2018-11-22T10:24:53.664Z,99.06
2018-11-22T10:25:53.891Z,97.73
2018-11-22T10:26:54.111Z,99.53
2018-11-22T10:27:54.335Z,99.99
2018-11-22T10:28:54.555Z,99.44
2018-11-22T10:29:54.778Z,99.06
2018-11-22T10:30:55.005Z,99.44
2018-11-22T10:31:55.227Z,98.68
2018-11-22T10:32:55.464Z,99.06
2018-11-22T10:33:55.667Z,97.92
2018-11-22T10:34:55.890Z,98.58
2018-11-22T10:35:56.115Z,99.99
2018-11-22T10:36:56.335Z,98.58
2018-11-22T10:37:56.589Z,99.39
2018-11-22T10:38:56.793Z,98.87
2018-11-22T10:39:57.011Z,99.58
2018-11-22T10:40:57.226Z,99.99
2018-11-22T10:41:57.447Z,99.99
2018-11-22T10:42:57.670Z,99.39
2018-11-22T10:43:57.900Z,99.99
2018-11-22T10:44:58.125Z,99.99
2018-11-22T10:45:58.342Z,99.99
2018-11-22T10:46:58.561Z,99.99
2018-11-22T10:47:58.783Z,99.99
2018-11-22T10:48:59.006Z,99.99
2018-11-22T10:49:59.228Z,99.58
2018-11-22T10:50:59.452Z,99.77
2018-11-22T10:51:59.675Z,99.99
2018-11-22T10:52:59.899Z,99.99
2018-11-22T10:54:00.123Z,99.99
2018-11-22T10:55:00.350Z,99.99
2018-11-22T10:56:00.572Z,99.99
2018-11-22T10:57:00.794Z,99.99
2018-11-22T10:58:01.018Z,99.68
2018-11-22T10:59:01.242Z,99.11
2018-11-22T11:00:01.463Z,99.99
2018-11-22T11:01:01.705Z,99.99
2018-11-22T11:02:01.916Z,99.99
2018-11-22T11:03:02.139Z,99.99
2018-11-22T11:04:02.435Z,99.99
2018-11-22T11:05:02.588Z,99.99
2018-11-22T11:06:02.798Z,99.99
2018-11-22T11:07:03.023Z,99.99
2018-11-22T11:08:03.249Z,99.99
2018-11-22T11:09:03.467Z,99.99
2018-11-22T11:10:03.692Z,99.99
2018-11-22T11:11:03.920Z,99.99
2018-11-22T11:12:04.138Z,99.99
2018-11-22T11:13:04.370Z,99.99
2018-11-22T11:14:04.587Z,99.99
2018-11-22T11:15:04.811Z,99.99
2018-11-22T11:16:05.034Z,99.99
2018-11-22T11:17:05.256Z,99.99
2018-11-22T11:18:05.483Z,99.99
2018-11-22T11:19:05.709Z,99.99
2018-11-22T11:20:05.991Z,99.99
